Time;durP1;ratioP1;P1;durP2;ratioP2;P2;SDS_P1;SDS_P2;PMS_P1;PMS_P2;Temp;Humidity;BMP_temperature;BMP_pressure;BME280_temperature;BME280_humidity;BME280_pressure;Samples;Min_cycle;Max_cycle;Signal;HPM_P1;HPM_P2
2023/04/26 00:01:26;;;;;;;8.45;6.20;;;;;;;9.47;48.24;97560.50;6298156;28;20051;-74
2023/04/26 00:04:30;;;;;;;6.97;4.80;;;;;;;9.39;48.49;97558.25;6297971;28;20046;-75
2023/04/26 00:07:34;;;;;;;8.15;5.07;;;;;;;9.46;48.73;97560.59;6296565;28;20168;-75
2023/04/26 00:10:40;;;;;;;9.35;4.28;;;;;;;9.49;48.44;97563.06;6298081;28;20036;-73
2023/04/26 00:13:45;;;;;;;8.90;4.80;;;;;;;9.38;48.79;97571.47;6297740;28;20407;-74
2023/04/26 00:16:49;;;;;;;11.65;5.18;;;;;;;9.35;48.77;97554.09;6295853;28;20052;-74
2023/04/26 00:19:56;;;;;;;9.52;5.78;;;;;;;9.34;48.92;97549.78;6297686;28;20048;-73
2023/04/26 00:23:01;;;;;;;7.65;5.50;;;;;;;9.35;48.87;97561.97;6297608;28;20037;-74
2023/04/26 00:26:06;;;;;;;11.18;6.90;;;;;;;9.47;49.30;97564.91;6297479;28;20044;-74
2023/04/26 00:29:10;;;;;;;11.77;6.53;;;;;;;9.42;49.21;97562.50;6296638;28;20044;-74
2023/04/26 00:32:13;;;;;;;;;;;;;;;9.30;48.81;97569.22;6297859;28;20036;-74
2023/04/26 00:35:19;;;;;;;7.50;4.68;;;;;;;9.40;49.51;97565.22;6297240;28;20057;-73
2023/04/26 00:38:24;;;;;;;7.30;5.28;;;;;;;9.47;49.39;97554.41;6296088;28;20041;-74
2023/04/26 00:41:29;;;;;;;8.35;4.60;;;;;;;9.41;49.59;97556.41;6297157;28;20048;-75
2023/04/26 00:44:34;;;;;;;6.30;4.38;;;;;;;9.41;49.64;97550.31;6295817;28;20143;-74
2023/04/26 00:47:40;;;;;;;8.43;4.50;;;;;;;9.40;49.60;97548.63;6296907;28;20036;-74
2023/04/26 00:50:49;;;;;;;6.80;4.47;;;;;;;9.55;49.50;97547.00;6296965;28;20044;-73
2023/04/26 00:53:52;;;;;;;7.63;4.30;;;;;;;9.44;49.70;97545.75;6295791;28;20036;-74
2023/04/26 00:56:59;;;;;;;7.70;4.87;;;;;;;9.56;49.69;97548.69;6295386;28;20044;-74
2023/04/26 01:00:03;;;;;;;6.75;3.70;;;;;;;9.44;49.57;97558.88;6296944;28;20048;-73
2023/04/26 01:03:10;;;;;;;6.88;4.15;;;;;;;9.37;49.56;97565.38;6296913;28;20037;-74
2023/04/26 01:06:15;;;;;;;6.22;4.30;;;;;;;9.34;49.70;97560.28;6296391;28;20044;-74
2023/04/26 01:09:19;;;;;;;6.25;3.78;;;;;;;9.32;49.73;97570.00;6296379;28;20458;-74
2023/04/26 01:12:23;;;;;;;;;;;;;;;9.26;48.94;97572.09;6296972;28;20036;-74
2023/04/26 01:15:29;;;;;;;4.75;3.25;;;;;;;9.28;49.52;97575.47;6296386;28;19916;-74
2023/04/26 01:18:36;;;;;;;6.55;3.47;;;;;;;9.31;49.64;97562.19;6294752;28;20094;-74
2023/04/26 01:21:42;;;;;;;6.07;3.60;;;;;;;9.29;49.79;97567.53;6296371;28;20041;-74
2023/04/26 01:24:50;;;;;;;5.85;3.80;;;;;;;9.28;49.97;97570.22;6296085;28;20048;-74
2023/04/26 01:27:55;;;;;;;12.00;4.72;;;;;;;9.29;49.70;97564.91;6296045;28;20090;-74
2023/04/26 01:30:59;;;;;;;16.33;9.98;;;;;;;9.44;49.72;97555.41;6296101;28;20048;-74
2023/04/26 01:34:04;;;;;;;15.00;6.28;;;;;;;9.48;49.26;97562.19;6294197;28;20056;-75
2023/04/26 01:37:09;;;;;;;13.65;6.35;;;;;;;9.46;48.99;97558.81;6295917;28;20044;-74
2023/04/26 01:40:14;;;;;;;12.32;6.63;;;;;;;9.48;49.02;97561.34;6295531;28;20048;-74
2023/04/26 01:43:20;;;;;;;14.25;7.72;;;;;;;9.51;48.76;97566.44;6295739;28;20067;-75
2023/04/26 01:46:25;;;;;;;17.27;6.72;;;;;;;9.64;48.90;97560.53;6294161;28;20056;-74
2023/04/26 01:49:30;;;;;;;15.20;7.13;;;;;;;9.71;48.67;97566.34;6295233;28;20040;-74
2023/04/26 01:52:35;;;;;;;12.50;5.90;;;;;;;9.74;48.50;97568.81;6295433;28;20048;-74
2023/04/26 01:55:40;;;;;;;8.52;6.15;;;;;;;9.80;48.55;97570.28;6295373;28;20044;-75
2023/04/26 01:58:46;;;;;;;15.52;6.35;;;;;;;9.92;48.41;97579.31;6295440;28;20048;-75
2023/04/26 02:01:50;;;;;;;15.02;6.75;;;;;;;9.93;48.26;97567.84;6295134;28;20033;-75
2023/04/26 02:04:55;;;;;;;14.07;5.40;;;;;;;9.93;48.21;97573.13;6293759;28;20052;-74
2023/04/26 02:08:00;;;;;;;10.90;5.72;;;;;;;9.97;48.25;97569.41;6294928;28;20502;-74
2023/04/26 02:11:04;;;;;;;9.85;5.45;;;;;;;10.02;48.03;97570.00;6295012;28;20040;-74
2023/04/26 02:14:08;;;;;;;;;;;;;;;10.02;47.76;97563.00;6294278;28;20040;-75
2023/04/26 02:17:13;;;;;;;11.15;5.25;;;;;;;10.07;47.70;97565.38;6294821;28;19924;-74
2023/04/26 02:20:19;;;;;;;13.63;6.78;;;;;;;10.16;47.82;97561.41;6294943;28;20048;-75
2023/04/26 02:23:23;;;;;;;15.00;7.05;;;;;;;10.19;47.78;97554.22;6294903;28;20086;-75
2023/04/26 02:26:31;;;;;;;15.32;7.55;;;;;;;10.26;47.51;97554.75;6294551;28;20142;-74
2023/04/26 02:29:35;;;;;;;16.98;8.57;;;;;;;10.39;47.52;97563.72;6294817;28;20052;-75
2023/04/26 02:32:40;;;;;;;16.13;8.77;;;;;;;10.46;47.36;97567.72;6294725;28;20048;-74
2023/04/26 02:35:45;;;;;;;16.48;8.95;;;;;;;10.51;47.28;97559.59;6294358;28;20048;-74
2023/04/26 02:38:52;;;;;;;14.15;8.02;;;;;;;10.60;47.09;97564.34;6294489;28;20048;-74
2023/04/26 02:41:56;;;;;;;19.45;7.43;;;;;;;10.67;46.91;97555.22;6294686;28;20047;-74
2023/04/26 02:45:02;;;;;;;12.38;7.00;;;;;;;10.78;46.86;97558.09;6294700;28;20182;-75
2023/04/26 02:48:08;;;;;;;16.02;6.95;;;;;;;10.92;46.49;97565.22;6293203;28;20529;-74
2023/04/26 02:51:11;;;;;;;14.27;7.47;;;;;;;11.00;46.29;97557.75;6294474;28;20434;-74
2023/04/26 02:54:16;;;;;;;17.37;8.97;;;;;;;11.07;46.11;97553.00;6294179;28;20043;-74
2023/04/26 02:57:21;;;;;;;14.60;8.52;;;;;;;11.19;46.00;97547.03;6294263;28;20475;-74
2023/04/26 03:00:26;;;;;;;16.10;7.05;;;;;;;11.34;45.65;97545.31;6293710;28;20430;-74
2023/04/26 03:03:31;;;;;;;14.05;6.55;;;;;;;11.52;45.05;97542.56;6298231;28;20178;-74
2023/04/26 03:06:35;;;;;;;8.43;5.43;;;;;;;11.73;44.69;97553.66;6298118;28;20044;-76
2023/04/26 03:09:41;;;;;;;10.18;5.80;;;;;;;11.93;44.52;97547.22;6297764;28;20637;-75
2023/04/26 03:12:45;;;;;;;7.13;4.70;;;;;;;12.20;43.89;97544.69;6303252;28;20101;-74
2023/04/26 03:15:51;;;;;;;11.35;5.50;;;;;;;12.39;43.42;97540.00;6299325;28;20128;-75
2023/04/26 03:18:55;;;;;;;5.10;3.60;;;;;;;12.74;42.84;97535.19;6297358;28;20048;-74
2023/04/26 03:22:03;;;;;;;8.93;5.70;;;;;;;13.15;42.07;97539.59;6299128;28;20135;-74
2023/04/26 03:25:10;;;;;;;8.05;4.05;;;;;;;13.30;41.54;97543.06;6297493;28;20060;-74
2023/04/26 03:28:15;;;;;;;10.93;5.25;;;;;;;13.54;41.36;97542.44;6297678;28;20616;-73
2023/04/26 03:31:20;;;;;;;6.60;4.10;;;;;;;13.89;40.52;97543.56;6297509;28;20051;-75
2023/04/26 03:34:26;;;;;;;7.72;4.25;;;;;;;14.33;39.69;97544.13;6298680;28;20421;-76
2023/04/26 03:37:30;;;;;;;9.90;4.07;;;;;;;14.82;38.57;97544.19;6297089;28;20044;-74
2023/04/26 03:40:35;;;;;;;7.07;3.88;;;;;;;15.37;37.37;97534.06;6297141;28;20636;-74
2023/04/26 03:43:40;;;;;;;5.55;3.38;;;;;;;15.73;36.81;97542.06;6298526;28;20102;-74
2023/04/26 03:46:45;;;;;;;3.38;1.95;;;;;;;16.16;34.62;97545.81;6296750;28;20048;-74
2023/04/26 03:49:51;;;;;;;3.58;2.30;;;;;;;16.48;33.90;97545.13;6298209;28;20048;-74
2023/04/26 03:53:00;;;;;;;4.10;1.90;;;;;;;16.91;32.77;97540.91;6298187;28;20501;-74
2023/04/26 03:56:03;;;;;;;3.58;2.20;;;;;;;17.12;32.17;97543.66;6298087;28;20505;-73
2023/04/26 03:59:08;;;;;;;4.22;2.13;;;;;;;17.21;31.76;97549.09;6298050;28;20040;-73
2023/04/26 04:02:15;;;;;;;2.47;1.98;;;;;;;17.24;31.57;97542.69;6297952;28;20048;-74
2023/04/26 04:05:19;;;;;;;1.88;1.52;;;;;;;17.35;31.72;97542.63;6296391;28;20147;-75
2023/04/26 04:08:24;;;;;;;3.95;1.60;;;;;;;17.46;31.54;97526.63;6297370;28;20036;-74
2023/04/26 04:11:29;;;;;;;4.07;1.67;;;;;;;17.67;31.23;97532.00;6297479;28;20044;-74
2023/04/26 04:14:34;;;;;;;2.90;1.70;;;;;;;17.88;30.97;97532.03;6297987;28;20044;-74
2023/04/26 04:17:38;;;;;;;1.55;1.27;;;;;;;18.13;30.47;97529.97;6296409;28;20513;-74
2023/04/26 04:20:47;;;;;;;1.95;1.10;;;;;;;18.24;30.16;97515.75;6297807;28;20048;-74
2023/04/26 04:23:52;;;;;;;1.52;1.05;;;;;;;18.20;29.93;97547.13;6296274;28;20045;-74
2023/04/26 04:26:57;;;;;;;2.08;1.17;;;;;;;18.27;29.31;97545.63;6296571;28;20052;-75
2023/04/26 04:30:02;;;;;;;1.73;1.08;;;;;;;18.17;29.00;97526.06;6297116;28;20174;-74
2023/04/26 04:33:11;;;;;;;1.65;0.80;;;;;;;18.28;28.55;97531.31;6297411;28;20048;-74
2023/04/26 04:36:16;;;;;;;3.25;1.00;;;;;;;18.64;27.55;97513.13;6297437;28;20047;-74
2023/04/26 04:39:21;;;;;;;2.03;1.20;;;;;;;18.58;27.83;97503.03;6296985;28;20051;-74
2023/04/26 04:42:27;;;;;;;2.88;1.17;;;;;;;18.51;27.84;97517.84;6297035;28;20051;-75
2023/04/26 04:45:31;;;;;;;2.25;1.05;;;;;;;18.62;27.63;97510.59;6295755;28;20516;-74
2023/04/26 04:48:37;;;;;;;1.33;0.93;;;;;;;18.69;27.56;97512.75;6296935;28;20037;-74
2023/04/26 04:51:42;;;;;;;2.92;1.10;;;;;;;18.77;27.94;97513.78;6296643;28;20040;-74
2023/04/26 04:54:47;;;;;;;1.70;1.05;;;;;;;18.92;27.06;97511.59;6296585;28;20043;-74
2023/04/26 04:57:51;;;;;;;1.90;1.13;;;;;;;18.59;27.50;97510.88;6295413;28;20422;-74
2023/04/26 05:00:55;;;;;;;1.67;1.17;;;;;;;18.46;28.19;97509.44;6278797;28;20040;-76
2023/04/26 05:03:59;;;;;;;3.47;1.27;;;;;;;18.38;27.80;97497.59;6296503;28;20041;-75
2023/04/26 05:07:09;;;;;;;3.47;1.23;;;;;;;18.24;28.24;97495.28;6295315;28;20521;-74
2023/04/26 05:10:15;;;;;;;3.75;1.35;;;;;;;18.60;27.78;97511.72;6295509;28;20048;-74
2023/04/26 05:13:20;;;;;;;1.77;1.00;;;;;;;18.69;27.62;97523.41;6296495;28;20040;-74
2023/04/26 05:16:27;;;;;;;2.42;1.40;;;;;;;18.73;27.59;97512.31;6296346;28;20052;-74
2023/04/26 05:19:32;;;;;;;3.35;1.17;;;;;;;18.97;27.13;97500.53;6296262;28;20037;-74
2023/04/26 05:22:36;;;;;;;1.58;1.00;;;;;;;19.16;26.90;97503.19;6295876;28;20086;-74
2023/04/26 05:25:40;;;;;;;2.22;1.65;;;;;;;19.27;27.04;97497.75;6295782;28;20139;-74
2023/04/26 05:28:45;;;;;;;3.97;1.20;;;;;;;19.22;27.01;97497.34;6294632;28;20518;-74
2023/04/26 05:31:50;;;;;;;2.17;1.02;;;;;;;19.24;26.89;97516.69;6294845;28;20044;-74
2023/04/26 05:34:56;;;;;;;3.08;1.90;;;;;;;18.90;27.19;97497.53;6295735;28;20413;-75
2023/04/26 05:38:00;;;;;;;2.60;1.38;;;;;;;18.93;26.79;97502.59;6293774;28;20052;-74
2023/04/26 05:41:05;;;;;;;3.33;1.25;;;;;;;19.02;26.37;97491.13;6295621;28;20460;-75
2023/04/26 05:44:09;;;;;;;3.08;1.60;;;;;;;18.80;26.54;97486.03;6295816;28;20075;-75
2023/04/26 05:47:15;;;;;;;4.25;1.13;;;;;;;18.67;26.72;97491.53;6295445;28;20047;-74
2023/04/26 05:50:20;;;;;;;3.55;1.35;;;;;;;18.82;26.55;97479.56;6295522;28;20059;-74
2023/04/26 05:53:24;;;;;;;2.67;1.00;;;;;;;18.79;26.62;97481.66;6293947;28;20102;-74
2023/04/26 05:56:29;;;;;;;1.55;1.23;;;;;;;18.87;26.36;97480.97;6295530;28;20509;-74
2023/04/26 05:59:37;;;;;;;3.90;1.40;;;;;;;19.00;25.99;97470.91;6295355;28;20040;-74
2023/04/26 06:02:42;;;;;;;2.35;1.50;;;;;;;19.06;25.54;97465.84;6295286;28;20086;-74
2023/04/26 06:05:46;;;;;;;1.77;1.02;;;;;;;19.16;25.37;97463.19;6295137;28;20055;-74
2023/04/26 06:08:51;;;;;;;1.42;1.20;;;;;;;19.48;25.10;97470.13;6294898;28;20085;-74
2023/04/26 06:11:56;;;;;;;2.30;1.05;;;;;;;19.74;24.22;97476.59;6293544;28;20044;-74
2023/04/26 06:15:00;;;;;;;2.35;1.20;;;;;;;19.91;24.11;97463.50;6294591;28;20048;-74
2023/04/26 06:18:06;;;;;;;2.20;0.88;;;;;;;20.00;23.61;97461.78;6294575;28;20431;-74
2023/04/26 06:21:10;;;;;;;1.20;0.90;;;;;;;19.81;23.48;97465.31;6293385;28;20192;-73
2023/04/26 06:24:16;;;;;;;4.55;1.55;;;;;;;19.77;22.63;97458.59;6293452;28;20055;-73
2023/04/26 06:27:19;;;;;;;1.77;1.02;;;;;;;19.62;22.53;97460.84;6293482;28;20044;-74
2023/04/26 06:30:23;;;;;;;4.72;0.95;;;;;;;19.57;22.37;97447.06;6292979;28;20048;-74
2023/04/26 06:33:28;;;;;;;1.52;0.85;;;;;;;19.41;22.18;97455.63;6293270;28;20498;-74
2023/04/26 06:36:33;;;;;;;2.65;1.00;;;;;;;19.47;21.52;97463.06;6293544;28;20043;-75
2023/04/26 06:39:38;;;;;;;1.83;1.00;;;;;;;19.60;21.55;97458.28;6294436;28;20044;-74
2023/04/26 06:42:42;;;;;;;1.38;0.80;;;;;;;19.62;21.38;97451.00;6294463;28;20037;-75
2023/04/26 06:45:47;;;;;;;1.92;0.82;;;;;;;19.69;21.10;97451.28;6294563;28;20087;-73
2023/04/26 06:48:53;;;;;;;3.28;0.95;;;;;;;19.79;21.24;97462.81;6293010;28;20044;-75
2023/04/26 06:51:57;;;;;;;1.58;0.90;;;;;;;19.99;20.38;97468.13;6294359;28;20040;-73
2023/04/26 06:55:03;;;;;;;3.47;0.90;;;;;;;19.98;20.26;97443.22;6294561;28;20425;-74
2023/04/26 06:58:09;;;;;;;2.47;1.20;;;;;;;20.14;20.16;97446.13;6294455;28;20513;-74
2023/04/26 07:01:12;;;;;;;1.58;1.00;;;;;;;20.18;19.33;97458.22;6294087;28;20046;-76
2023/04/26 07:04:20;;;;;;;1.98;1.00;;;;;;;20.28;19.33;97441.31;6294255;28;20048;-74
2023/04/26 07:07:25;;;;;;;2.80;0.93;;;;;;;20.18;19.63;97436.00;6294402;28;20037;-74
2023/04/26 07:10:29;;;;;;;2.13;0.80;;;;;;;20.13;19.80;97433.78;6293021;28;20048;-74
2023/04/26 07:13:40;;;;;;;1.95;0.88;;;;;;;20.20;19.96;97436.69;6294323;28;20043;-74
2023/04/26 07:16:44;;;;;;;2.08;0.90;;;;;;;20.33;19.67;97418.50;6292648;28;20045;-75
2023/04/26 07:19:48;;;;;;;3.00;1.10;;;;;;;20.61;19.69;97424.75;6293919;28;20056;-75
2023/04/26 07:22:53;;;;;;;3.63;0.88;;;;;;;20.66;19.09;97426.94;6294293;28;20036;-74
2023/04/26 07:25:57;;;;;;;2.03;1.10;;;;;;;20.74;19.09;97421.69;6292725;28;20048;-74
2023/04/26 07:29:02;;;;;;;3.90;0.90;;;;;;;21.10;18.87;97421.75;6294007;28;20047;-74
2023/04/26 07:32:07;;;;;;;2.15;1.08;;;;;;;21.35;18.93;97403.25;6293772;28;20048;-74
2023/04/26 07:35:14;;;;;;;1.25;0.70;;;;;;;21.65;18.36;97418.06;6294253;28;20036;-75
2023/04/26 07:38:19;;;;;;;2.58;1.00;;;;;;;21.80;18.21;97392.44;6309968;28;20040;-74
2023/04/26 07:41:26;;;;;;;2.92;1.10;;;;;;;22.08;17.94;97384.19;6292664;28;20040;-75
2023/04/26 07:44:30;;;;;;;4.15;0.80;;;;;;;22.21;17.82;97384.66;6292487;28;20048;-75
2023/04/26 07:47:36;;;;;;;1.88;0.93;;;;;;;22.84;17.40;97381.53;6296406;28;20055;-76
2023/04/26 07:50:41;;;;;;;2.60;1.35;;;;;;;23.29;17.07;97374.91;6294604;28;20048;-74
2023/04/26 07:53:45;;;;;;;3.83;1.15;;;;;;;23.05;16.33;97377.59;6298380;28;20102;-74
2023/04/26 07:56:49;;;;;;;3.08;1.20;;;;;;;22.70;16.29;97363.38;6296730;28;20048;-74
2023/04/26 07:59:54;;;;;;;7.65;1.98;;;;;;;22.30;16.57;97372.94;6298031;28;20409;-75
2023/04/26 08:02:56;;;;;;;3.65;1.38;;;;;;;21.96;16.63;97357.69;6298153;28;20509;-74
2023/04/26 08:06:00;;;;;;;5.38;1.38;;;;;;;21.74;16.86;97360.91;6297956;28;20047;-75
2023/04/26 08:09:06;;;;;;;2.03;0.88;;;;;;;21.91;16.71;97351.97;6297803;28;20131;-75
2023/04/26 08:12:12;;;;;;;3.20;0.90;;;;;;;21.80;17.03;97346.88;6298165;28;20439;-74
2023/04/26 08:15:17;;;;;;;2.85;1.10;;;;;;;21.80;17.13;97348.69;6297579;28;20048;-75
2023/04/26 08:18:22;;;;;;;1.70;0.90;;;;;;;21.94;17.25;97330.22;6295761;28;20052;-75
2023/04/26 08:21:26;;;;;;;2.65;0.68;;;;;;;21.88;16.84;97317.47;6313036;28;20037;-74
2023/04/26 08:24:34;;;;;;;3.17;1.15;;;;;;;21.82;16.70;97301.19;6297486;28;20094;-75
2023/04/26 08:27:37;;;;;;;1.45;1.15;;;;;;;21.90;16.50;97325.34;6297725;28;20117;-74
2023/04/26 08:30:41;;;;;;;4.07;1.17;;;;;;;22.25;16.58;97336.91;6297320;28;20131;-75
2023/04/26 08:33:46;;;;;;;2.00;0.85;;;;;;;22.57;16.23;97309.38;6296944;28;20179;-74
2023/04/26 08:36:53;;;;;;;2.88;1.08;;;;;;;22.50;16.25;97292.25;6297430;28;20517;-74
2023/04/26 08:39:57;;;;;;;1.65;0.70;;;;;;;22.65;16.23;97285.25;6297391;28;20051;-75
2023/04/26 08:43:02;;;;;;;2.88;1.02;;;;;;;22.45;16.55;97298.13;6297375;28;20178;-74
2023/04/26 08:46:11;;;;;;;3.55;1.52;;;;;;;22.59;16.03;97312.72;6296748;28;20468;-73
2023/04/26 08:49:27;;;;;;;3.55;1.48;;;;;;;22.58;16.09;97294.94;6297160;28;20306;-74
2023/04/26 08:52:36;;;;;;;4.07;0.93;;;;;;;22.48;16.14;97299.63;6296333;28;20041;-74
2023/04/26 08:55:41;;;;;;;5.45;1.23;;;;;;;22.41;16.43;97300.28;6296833;28;20414;-74
2023/04/26 08:58:46;;;;;;;6.07;1.45;;;;;;;23.39;15.60;97283.44;6295933;28;20040;-73
2023/04/26 09:01:50;;;;;;;3.05;0.93;;;;;;;24.11;14.93;97288.81;6296751;28;20041;-73
2023/04/26 09:04:57;;;;;;;3.35;0.82;;;;;;;23.85;14.63;97304.38;6295374;28;20514;-74
2023/04/26 09:08:04;;;;;;;3.33;1.10;;;;;;;23.41;15.09;97283.25;6295328;28;20094;-73
2023/04/26 09:11:11;;;;;;;5.00;1.08;;;;;;;23.46;15.00;97294.34;6296312;28;20377;-74
2023/04/26 09:14:16;;;;;;;4.63;1.17;;;;;;;24.04;14.82;97298.59;6296352;28;20036;-74
2023/04/26 09:17:33;;;;;;;2.88;0.65;;;;;;;24.85;14.00;97280.34;6294986;28;20049;-74
2023/04/26 09:20:38;;;;;;;4.38;1.00;;;;;;;26.22;13.04;97274.84;6294012;28;20043;-74
2023/04/26 09:24:19;;;;;;;6.10;1.48;;;;;;;26.55;13.14;97267.16;6296215;28;20443;-74
2023/04/26 09:27:39;;;;;;;10.20;1.73;;;;;;;26.61;13.07;97271.78;6269128;28;20088;-73
2023/04/26 09:30:44;;;;;;;7.43;1.75;;;;;;;27.81;12.03;97310.72;6295820;28;20045;-74
2023/04/26 09:33:58;;;;;;;6.38;0.68;;;;;;;28.26;11.76;97303.06;6294937;28;20178;-74
2023/04/26 09:37:04;;;;;;;2.45;0.55;;;;;;;28.19;11.73;97282.25;6295728;28;20036;-74
2023/04/26 09:40:22;;;;;;;7.07;1.40;;;;;;;26.75;12.53;97254.72;6294368;28;20048;-74
2023/04/26 09:43:27;;;;;;;10.02;1.80;;;;;;;25.52;13.16;97296.63;6295819;28;20434;-75
2023/04/26 09:46:31;;;;;;;4.90;1.15;;;;;;;24.96;13.14;97271.84;6277330;28;20517;-74
2023/04/26 09:49:49;;;;;;;4.97;1.02;;;;;;;24.90;13.51;97256.41;6295231;28;20036;-73
2023/04/26 09:52:52;;;;;;;11.02;1.45;;;;;;;25.60;13.16;97290.34;6294078;28;20037;-74
2023/04/26 09:56:08;;;;;;;7.50;0.80;;;;;;;26.34;12.74;97273.31;6276953;28;20585;-73
2023/04/26 09:59:13;;;;;;;5.57;0.90;;;;;;;26.14;12.83;97243.41;6295231;28;20418;-75
2023/04/26 10:02:24;;;;;;;6.82;1.08;;;;;;;27.08;12.16;97235.28;6295244;28;20047;-74
2023/04/26 10:05:31;;;;;;;10.55;2.30;;;;;;;27.68;11.77;97260.88;6295079;28;20044;-74
2023/04/26 10:08:37;;;;;;;7.68;1.83;;;;;;;27.98;11.61;97263.41;6295284;28;20044;-74
2023/04/26 10:11:41;;;;;;;4.35;1.42;;;;;;;27.91;11.71;97257.09;6294914;28;20527;-74
2023/04/26 10:14:47;;;;;;;9.57;1.15;;;;;;;28.29;11.71;97251.25;6295057;28;20155;-74
2023/04/26 10:17:52;;;;;;;9.63;1.70;;;;;;;27.69;11.79;97265.28;6293215;28;20055;-75
2023/04/26 10:21:00;;;;;;;13.48;2.13;;;;;;;27.15;12.31;97221.81;6294909;28;20048;-74
2023/04/26 10:24:04;;;;;;;14.98;2.65;;;;;;;27.16;12.17;97231.63;6295012;28;20044;-74
2023/04/26 10:27:08;;;;;;;15.07;2.22;;;;;;;27.87;11.83;97215.28;6294759;28;20048;-74
2023/04/26 10:30:17;;;;;;;6.13;1.10;;;;;;;27.70;11.84;97218.28;6294247;28;20052;-75
2023/04/26 10:33:23;;;;;;;10.65;2.53;;;;;;;27.53;12.48;97209.66;6293871;28;20095;-76
2023/04/26 10:36:27;;;;;;;8.88;2.00;;;;;;;27.71;12.36;97206.44;6294867;28;20413;-75
2023/04/26 10:39:31;;;;;;;13.38;2.03;;;;;;;27.67;12.34;97229.50;6292965;28;20430;-75
2023/04/26 10:42:37;;;;;;;4.40;1.50;;;;;;;27.43;12.51;97217.28;6294442;28;20048;-74
2023/04/26 10:45:45;;;;;;;7.40;1.08;;;;;;;27.56;12.70;97200.31;6293918;28;20047;-75
2023/04/26 10:48:52;;;;;;;7.22;1.10;;;;;;;27.52;12.93;97236.91;6294068;28;20117;-76
2023/04/26 10:52:21;;;;;;;7.13;1.45;;;;;;;27.04;13.49;97212.41;6293929;28;20131;-75
2023/04/26 10:55:43;;;;;;;5.40;1.92;;;;;;;26.07;14.34;97196.63;6294272;28;20143;-75
2023/04/26 10:59:06;;;;;;;24.13;3.90;;;;;;;25.53;14.59;97185.16;6294379;28;20090;-75
2023/04/26 11:02:11;;;;;;;14.73;3.03;;;;;;;25.18;14.86;97188.56;6294491;28;20048;-74
2023/04/26 11:05:38;;;;;;;11.40;2.38;;;;;;;24.54;15.50;97208.59;6294528;28;20067;-74
2023/04/26 11:08:46;;;;;;;14.02;3.33;;;;;;;24.76;15.78;97173.78;6293145;28;20037;-74
2023/04/26 11:12:32;;;;;;;8.95;1.40;;;;;;;24.82;15.43;97189.19;6294020;28;20041;-73
2023/04/26 11:15:46;;;;;;;4.88;1.20;;;;;;;24.34;16.13;97189.34;6294011;28;20057;-76
2023/04/26 11:23:40;;;;;;;11.95;2.63;;;;;;;24.58;16.39;97164.19;6297316;28;20118;-74
2023/04/26 11:27:28;;;;;;;12.02;2.75;;;;;;;24.55;16.66;97182.53;6297470;28;20151;-75
2023/04/26 11:31:23;;;;;;;9.45;1.40;;;;;;;24.68;17.12;97190.00;6220817;28;20537;-74
2023/04/26 11:34:38;;;;;;;11.30;2.58;;;;;;;24.37;17.54;97177.41;6221256;28;20058;-74
2023/04/26 11:38:03;;;;;;;5.90;1.38;;;;;;;24.18;17.42;97186.78;6221449;28;20046;-75
2023/04/26 11:41:10;;;;;;;7.25;1.67;;;;;;;24.02;17.90;97163.53;6296377;28;20537;-75
2023/04/26 11:44:21;;;;;;;7.40;1.52;;;;;;;24.60;17.34;97167.53;6296735;28;20137;-75
2023/04/26 11:47:29;;;;;;;5.68;1.48;;;;;;;24.67;17.36;97158.72;6296833;28;20048;-74
2023/04/26 11:50:37;;;;;;;6.15;1.20;;;;;;;24.57;17.17;97143.69;6298185;28;20052;-76
2023/04/26 11:53:42;;;;;;;5.95;1.55;;;;;;;24.61;17.53;97136.91;6298071;28;20098;-75
2023/04/26 11:56:47;;;;;;;8.65;1.90;;;;;;;24.56;17.75;97151.91;6296098;28;20185;-74
2023/04/26 12:00:07;;;;;;;3.38;1.00;;;;;;;24.74;17.63;97116.59;6298057;28;20044;-74
2023/04/26 12:03:17;;;;;;;19.42;1.65;;;;;;;24.80;17.40;97121.28;6298024;28;20125;-75
2023/04/26 12:06:42;;;;;;;4.13;1.13;;;;;;;24.78;16.95;97136.75;6298191;28;20044;-73
2023/04/26 12:09:47;;;;;;;1.98;0.93;;;;;;;24.65;17.45;97114.00;6298241;28;20086;-74
2023/04/26 12:12:57;;;;;;;11.18;2.05;;;;;;;24.57;17.14;97122.16;6298300;28;20425;-74
2023/04/26 12:16:11;;;;;;;4.18;1.45;;;;;;;24.55;16.79;97118.81;6296531;28;20060;-74
2023/04/26 12:19:40;;;;;;;7.80;1.40;;;;;;;24.52;16.95;97113.78;6296488;28;20094;-75
2023/04/26 12:22:57;;;;;;;6.13;1.02;;;;;;;24.63;16.95;97116.03;6297180;28;20080;-74
2023/04/26 12:26:06;;;;;;;8.10;1.67;;;;;;;24.41;17.63;97079.22;6297465;28;20449;-75
2023/04/26 12:29:11;;;;;;;6.38;1.63;;;;;;;24.38;17.71;97079.59;6297042;28;20078;-74
2023/04/26 12:32:16;;;;;;;5.57;2.25;;;;;;;24.36;17.24;97066.31;6297434;28;20070;-74
2023/04/26 12:35:21;;;;;;;12.18;5.18;;;;;;;24.13;17.62;97077.09;6297241;28;20410;-76
2023/04/26 12:38:24;;;;;;;10.30;3.20;;;;;;;23.83;17.62;97088.72;6297151;28;20123;-74
2023/04/26 12:41:28;;;;;;;7.80;2.00;;;;;;;23.55;17.75;97099.91;6295199;28;20049;-75
2023/04/26 12:44:31;;;;;;;9.57;2.25;;;;;;;23.30;18.20;97075.88;6297073;28;20483;-75
2023/04/26 12:47:35;;;;;;;11.88;2.30;;;;;;;23.33;18.39;97068.50;6295647;28;20044;-75
2023/04/26 12:50:40;;;;;;;7.57;2.92;;;;;;;23.42;18.37;97054.84;6296812;28;20066;-75
2023/04/26 12:53:44;;;;;;;8.82;3.03;;;;;;;23.64;18.31;97066.66;6296667;28;20044;-74
2023/04/26 12:56:51;;;;;;;7.03;1.77;;;;;;;23.53;18.41;97075.09;6296401;28;20050;-75
2023/04/26 12:59:56;;;;;;;5.20;1.40;;;;;;;23.60;17.97;97065.31;6296335;28;20102;-74
2023/04/26 13:03:01;;;;;;;5.75;1.35;;;;;;;23.40;18.19;97093.63;6295983;28;20093;-74
2023/04/26 13:06:06;;;;;;;7.22;1.50;;;;;;;23.19;18.16;97062.84;6295395;28;20521;-75
2023/04/26 13:09:12;;;;;;;11.57;2.20;;;;;;;22.97;18.70;97074.31;6294844;28;20106;-75
2023/04/26 13:12:19;;;;;;;8.32;1.65;;;;;;;22.76;19.51;97073.00;6296145;28;20041;-75
2023/04/26 13:15:25;;;;;;;6.22;1.77;;;;;;;22.72;19.52;97044.00;6296275;28;20089;-75
2023/04/26 13:18:30;;;;;;;6.43;1.70;;;;;;;22.63;19.50;97083.41;6295817;28;20059;-75
2023/04/26 13:21:34;;;;;;;6.90;1.40;;;;;;;22.54;19.77;97071.03;6295998;28;20075;-74
2023/04/26 13:24:39;;;;;;;3.15;1.30;;;;;;;22.30;19.94;97067.34;6295955;28;20064;-75
2023/04/26 13:27:44;;;;;;;2.60;0.90;;;;;;;22.34;20.02;97047.25;6295692;28;20051;-75
2023/04/26 13:30:49;;;;;;;4.88;1.83;;;;;;;22.22;20.11;97070.03;6293873;28;20067;-76
2023/04/26 13:33:54;;;;;;;5.55;2.28;;;;;;;22.02;20.41;97053.41;6295684;28;20037;-75
2023/04/26 13:37:02;;;;;;;8.57;1.88;;;;;;;22.01;20.60;97062.47;6295451;28;20040;-75
2023/04/26 13:40:06;;;;;;;6.90;2.40;;;;;;;21.85;20.71;97052.56;6295513;28;20101;-75
2023/04/26 13:43:10;;;;;;;1.95;1.05;;;;;;;22.07;20.54;97042.19;6295058;28;20040;-75
2023/04/26 13:46:14;;;;;;;7.40;1.38;;;;;;;21.86;20.57;97058.78;6295084;28;20521;-76
2023/04/26 13:49:21;;;;;;;6.93;1.67;;;;;;;21.80;20.65;97038.00;6295497;28;20059;-74
2023/04/26 13:52:25;;;;;;;4.10;1.38;;;;;;;21.77;20.92;97055.25;6295294;28;20494;-74
2023/04/26 13:55:29;;;;;;;4.22;1.10;;;;;;;21.62;21.04;97041.66;6295156;28;20055;-76
2023/04/26 13:58:33;;;;;;;5.68;2.10;;;;;;;21.50;21.30;97026.91;6293876;28;20127;-75
2023/04/26 14:01:36;;;;;;;11.20;1.92;;;;;;;21.37;21.51;97024.69;6293820;28;20044;-77
2023/04/26 14:04:40;;;;;;;5.28;1.38;;;;;;;21.24;21.61;97005.56;6295070;28;20417;-74
2023/04/26 14:07:45;;;;;;;10.95;2.67;;;;;;;21.16;21.73;97010.91;6294485;28;20460;-75
2023/04/26 14:10:49;;;;;;;10.60;5.68;;;;;;;21.04;21.75;97008.50;6292986;28;20040;-74
2023/04/26 14:13:58;;;;;;;6.72;3.78;;;;;;;20.93;22.24;97003.47;6294563;28;20504;-75
2023/04/26 14:17:02;;;;;;;8.55;2.65;;;;;;;20.99;22.29;97012.66;6294290;28;20136;-75
2023/04/26 14:20:07;;;;;;;9.65;3.25;;;;;;;21.07;22.00;97005.50;6294611;28;20051;-74
2023/04/26 14:23:12;;;;;;;6.55;2.63;;;;;;;21.00;22.28;97015.16;6294758;28;20131;-74
2023/04/26 14:26:17;;;;;;;4.68;1.73;;;;;;;20.85;22.21;97000.75;6293461;28;20070;-75
2023/04/26 14:29:22;;;;;;;8.27;2.90;;;;;;;20.78;22.60;96994.38;6294676;28;20049;-76
2023/04/26 14:32:28;;;;;;;10.90;4.15;;;;;;;20.74;22.33;97001.03;6294966;28;20044;-75
2023/04/26 14:35:34;;;;;;;9.43;3.78;;;;;;;20.66;22.30;97007.16;6293298;28;20047;-75
2023/04/26 14:38:42;;;;;;;6.07;2.53;;;;;;;20.56;22.72;97023.31;6294316;28;20144;-75
2023/04/26 14:41:46;;;;;;;8.27;2.60;;;;;;;20.25;22.68;97014.09;6294138;28;20135;-74
2023/04/26 14:44:50;;;;;;;9.82;3.83;;;;;;;20.05;22.68;97008.94;6294278;28;20413;-75